Time;durP1;ratioP1;P1;durP2;ratioP2;P2;SDS_P1;SDS_P2;PMS_P1;PMS_P2;Temp;Humidity;BMP_temperature;BMP_pressure;BME280_temperature;BME280_humidity;BME280_pressure;Samples;Min_cycle;Max_cycle;Signal;HPM_P1;HPM_P2
2022/10/13 00:01:15;;;;;;;0.60;0.60;;;13.80;99.90;14.20;101717.00;;;;5034768;28;20191;-66
2022/10/13 00:03:45;;;;;;;0.47;0.47;;;13.90;99.90;14.30;101709.00;;;;5051099;28;20178;-65
2022/10/13 00:06:14;;;;;;;0.20;0.20;;;13.80;99.90;14.10;101716.00;;;;5051000;28;20605;-65
2022/10/13 00:08:40;;;;;;;0.60;0.60;;;13.80;99.90;14.10;101703.00;;;;5035617;28;20215;-65
2022/10/13 00:11:33;;;;;;;0.20;0.20;;;13.70;99.90;13.90;101704.00;;;;5050830;28;20182;-65
2022/10/13 00:14:02;;;;;;;0.20;0.20;;;13.60;99.90;13.80;101701.00;;;;5033856;28;20265;-65
2022/10/13 00:16:31;;;;;;;0.23;0.23;;;13.60;99.90;14.10;101703.00;;;;5051262;28;20179;-66
2022/10/13 00:18:57;;;;;;;0.67;0.67;;;13.60;99.90;14.00;101707.00;;;;5050888;28;20577;-65
2022/10/13 00:21:26;;;;;;;2.77;0.60;;;13.60;99.90;14.10;101660.00;;;;5050915;28;20190;-65
2022/10/13 00:23:53;;;;;;;3.17;1.20;;;13.70;99.90;14.30;101686.00;;;;5033886;28;20234;-65
2022/10/13 00:26:22;;;;;;;0.87;0.87;;;13.80;99.90;13.80;101704.00;;;;5035308;28;20674;-65
2022/10/13 00:28:49;;;;;;;0.40;0.40;;;13.70;99.90;14.10;101697.00;;;;5050897;28;20517;-65
2022/10/13 00:31:28;;;;;;;0.30;0.30;;;13.70;99.90;14.00;101673.00;;;;5050390;28;20182;-65
2022/10/13 00:33:54;;;;;;;0.67;0.63;;;13.60;99.90;13.80;101698.00;;;;5050436;28;20172;-66
2022/10/13 00:36:22;;;;;;;0.20;0.20;;;13.60;99.90;13.70;101704.00;;;;5050541;28;20519;-67
2022/10/13 00:38:48;;;;;;;11.93;2.43;;;13.50;99.90;13.70;101703.00;;;;5035222;28;20179;-65
2022/10/13 00:41:14;;;;;;;1.70;1.60;;;13.50;99.90;13.50;101716.00;;;;5050516;28;20184;-65
2022/10/13 00:44:02;;;;;;;1.63;1.53;;;13.50;99.90;13.80;101705.00;;;;5033772;28;20613;-65
2022/10/13 00:46:33;;;;;;;0.60;0.60;;;13.60;99.90;13.80;101714.00;;;;5050390;28;20196;-65
2022/10/13 00:49:15;;;;;;;3.90;3.60;;;13.60;99.90;14.10;101709.00;;;;5050399;28;20179;-66
2022/10/13 00:51:46;;;;;;;0.30;0.30;;;13.70;99.90;13.90;101705.00;;;;5049892;28;20531;-65
2022/10/13 00:54:17;;;;;;;2.03;0.80;;;13.70;99.90;13.90;101701.00;;;;5050032;28;20596;-65
2022/10/13 00:56:44;;;;;;;0.30;0.30;;;13.70;99.90;14.00;101694.00;;;;5049439;28;20184;-65
2022/10/13 00:59:25;;;;;;;0.30;0.30;;;13.60;99.90;14.20;101695.00;;;;5050392;28;20187;-65
2022/10/13 01:01:56;;;;;;;0.20;0.20;;;13.70;99.90;14.00;101705.00;;;;5050154;28;20180;-65
2022/10/13 01:04:26;;;;;;;0.30;0.30;;;13.70;99.90;14.30;101706.00;;;;5050061;28;20173;-65
2022/10/13 01:06:54;;;;;;;0.30;0.30;;;13.80;99.90;13.90;101698.00;;;;5034615;28;20186;-66
2022/10/13 01:09:22;;;;;;;1.07;1.07;;;13.70;99.90;14.00;101694.00;;;;5049844;28;20205;-65
2022/10/13 01:12:10;;;;;;;1.13;1.13;;;13.60;99.90;13.90;101702.00;;;;5049300;28;20232;-66
2022/10/13 01:14:59;;;;;;;0.30;0.30;;;13.60;99.90;13.70;101691.00;;;;5034682;28;20734;-66
2022/10/13 01:17:52;;;;;;;0.30;0.30;;;13.50;99.90;13.90;101697.00;;;;5049863;28;20656;-67
2022/10/13 01:21:06;;;;;;;0.20;0.20;;;13.50;99.90;14.10;101699.00;;;;5049741;28;20570;-65
2022/10/13 01:24:11;;;;;;;0.50;0.50;;;13.60;99.90;14.30;101696.00;;;;5049516;28;20618;-65
2022/10/13 01:26:49;;;;;;;0.77;0.77;;;13.80;99.90;14.00;101688.00;;;;5049822;28;20188;-65
2022/10/13 01:30:02;;;;;;;0.20;0.20;;;13.70;99.90;13.80;101689.00;;;;5049451;28;20189;-65
2022/10/13 01:33:09;;;;;;;0.60;0.60;;;13.50;99.90;14.10;101688.00;;;;5049194;28;20256;-65
2022/10/13 01:36:08;;;;;;;3.13;0.83;;;13.60;99.90;13.90;101683.00;;;;5032851;28;20189;-66
2022/10/13 01:39:06;;;;;;;0.50;0.50;;;13.60;99.90;14.00;101685.00;;;;5033793;28;20175;-66
2022/10/13 01:41:40;;;;;;;0.30;0.30;;;13.60;99.90;13.70;101683.00;;;;5049307;28;20174;-66
2022/10/13 01:44:16;;;;;;;0.40;0.40;;;13.50;99.90;13.90;101689.00;;;;5032384;28;20676;-66
2022/10/13 01:46:46;;;;;;;0.60;0.60;;;13.50;99.90;14.00;101682.00;;;;5049263;28;20175;-66
2022/10/13 01:49:16;;;;;;;0.40;0.40;;;13.50;99.90;14.10;101649.00;;;;5048913;28;20175;-66
2022/10/13 01:51:45;;;;;;;0.20;0.20;;;13.50;99.90;13.90;101674.00;;;;5048742;28;20206;-66
2022/10/13 01:54:11;;;;;;;0.30;0.30;;;13.60;99.90;14.00;101672.00;;;;5049267;28;20246;-66
2022/10/13 01:56:37;;;;;;;0.67;0.60;;;13.60;99.90;14.20;101648.00;;;;5033783;28;20699;-66
2022/10/13 01:59:10;;;;;;;0.40;0.40;;;13.60;99.90;13.90;101665.00;;;;5032557;28;20241;-65
2022/10/13 02:02:18;;;;;;;0.30;0.30;;;13.60;99.90;13.90;101669.00;;;;5049258;28;20238;-66
2022/10/13 02:05:02;;;;;;;0.20;0.20;;;13.60;99.90;14.10;101664.00;;;;5032145;28;20182;-65
2022/10/13 02:07:53;;;;;;;0.30;0.30;;;13.50;99.90;13.50;101666.00;;;;5031755;28;20650;-65
2022/10/13 02:10:48;;;;;;;0.30;0.30;;;13.40;99.90;13.70;101658.00;;;;5031978;28;20196;-65
2022/10/13 02:13:16;;;;;;;0.90;0.90;;;13.30;99.90;13.60;101653.00;;;;5031878;28;20211;-65
2022/10/13 02:15:52;;;;;;;0.67;0.67;;;13.30;99.90;13.90;101651.00;;;;5032291;28;20511;-65
2022/10/13 02:18:27;;;;;;;0.90;0.90;;;13.40;99.90;13.60;101651.00;;;;5048560;28;20194;-65
2022/10/13 02:20:54;;;;;;;1.47;1.40;;;13.40;99.90;13.90;101616.00;;;;5033345;28;20290;-65
2022/10/13 02:23:23;;;;;;;0.30;0.30;;;13.40;99.90;13.70;101636.00;;;;5031887;28;20573;-65
2022/10/13 02:25:50;;;;;;;0.80;0.80;;;13.40;99.90;13.50;101634.00;;;;5048811;28;20251;-65
2022/10/13 02:28:17;;;;;;;1.60;1.60;;;13.40;99.90;13.70;101635.00;;;;5048604;28;20226;-65
2022/10/13 02:30:44;;;;;;;0.20;0.20;;;13.30;99.90;13.70;101638.00;;;;5033241;28;20216;-66
2022/10/13 02:33:13;;;;;;;0.20;0.20;;;13.40;99.90;13.40;101634.00;;;;5031890;28;20371;-66
2022/10/13 02:35:39;;;;;;;4.23;3.03;;;13.30;99.90;13.60;101631.00;;;;5033437;28;20201;-66
2022/10/13 02:38:05;;;;;;;0.30;0.30;;;13.30;99.90;13.50;101632.00;;;;5032342;28;20172;-66
2022/10/13 02:40:31;;;;;;;0.30;0.30;;;13.30;99.90;13.60;101622.00;;;;5031904;28;20266;-66
2022/10/13 02:42:57;;;;;;;0.20;0.20;;;13.30;99.90;13.70;101617.00;;;;5031826;28;20582;-66
2022/10/13 02:45:24;;;;;;;0.20;0.20;;;13.30;99.90;13.60;101620.00;;;;5031634;28;20180;-66
2022/10/13 02:47:50;;;;;;;0.20;0.20;;;13.30;99.90;13.50;101613.00;;;;5048838;28;20229;-66
2022/10/13 02:50:16;;;;;;;0.20;0.20;;;13.30;99.90;13.90;101623.00;;;;5031675;28;20546;-66
2022/10/13 02:52:42;;;;;;;3.13;1.27;;;13.40;99.90;13.90;101605.00;;;;5031794;28;20737;-66
2022/10/13 02:55:11;;;;;;;0.20;0.20;;;13.40;99.90;13.90;101606.00;;;;5031664;28;20282;-66
2022/10/13 02:57:37;;;;;;;0.30;0.30;;;13.40;99.90;13.80;101597.00;;;;5031900;28;20604;-66
2022/10/13 03:00:06;;;;;;;0.20;0.20;;;13.50;99.90;13.60;101565.00;;;;5048114;28;20171;-66
2022/10/13 03:02:32;;;;;;;1.17;1.17;;;13.40;99.90;13.70;101599.00;;;;5048158;28;20176;-65
2022/10/13 03:04:58;;;;;;;0.43;0.43;;;13.40;99.90;13.90;101603.00;;;;5031785;28;20315;-65
2022/10/13 03:07:23;;;;;;;0.20;0.20;;;13.50;99.90;13.70;101602.00;;;;5031684;28;20283;-65
2022/10/13 03:09:49;;;;;;;1.53;1.50;;;13.50;99.90;13.80;101594.00;;;;5048109;28;20182;-66
2022/10/13 03:12:15;;;;;;;0.30;0.30;;;13.50;99.90;13.50;101597.00;;;;5048138;28;20310;-66
2022/10/13 03:14:42;;;;;;;0.20;0.20;;;13.40;99.90;13.60;101578.00;;;;5031464;28;20188;-65
2022/10/13 03:17:08;;;;;;;0.30;0.30;;;13.40;99.90;13.50;101577.00;;;;5048108;28;20545;-66
2022/10/13 03:19:34;;;;;;;6.30;3.47;;;13.30;99.90;13.60;101575.00;;;;5034085;28;20183;-65
2022/10/13 03:22:00;;;;;;;0.20;0.20;;;13.30;99.90;13.60;101589.00;;;;5035341;28;20182;-65
2022/10/13 03:24:28;;;;;;;0.20;0.20;;;13.30;99.90;13.70;101590.00;;;;5051752;28;20195;-65
2022/10/13 03:26:54;;;;;;;2.33;1.13;;;13.40;99.90;13.80;101589.00;;;;5035226;28;20642;-65
2022/10/13 03:29:21;;;;;;;0.20;0.20;;;13.40;99.90;13.80;101589.00;;;;5034952;28;20183;-65
2022/10/13 03:31:47;;;;;;;0.50;0.50;;;13.50;99.90;13.80;101584.00;;;;5034987;28;20261;-65
2022/10/13 03:34:16;;;;;;;0.30;0.30;;;13.40;99.90;13.60;101557.00;;;;5034984;28;20186;-66
2022/10/13 03:36:42;;;;;;;0.50;0.50;;;13.40;99.90;13.50;101595.00;;;;5035005;28;20631;-65
2022/10/13 03:39:08;;;;;;;0.30;0.30;;;13.30;99.90;13.70;101589.00;;;;5052070;28;20167;-66
2022/10/13 03:41:34;;;;;;;0.50;0.50;;;13.30;99.90;13.80;101584.00;;;;5034793;28;20534;-66
2022/10/13 03:44:00;;;;;;;0.20;0.20;;;13.40;99.90;13.90;101592.00;;;;5051850;28;20638;-66
2022/10/13 03:46:28;;;;;;;0.30;0.30;;;13.40;99.90;13.80;101590.00;;;;5051931;28;20682;-66
2022/10/13 03:48:54;;;;;;;0.50;0.50;;;13.40;99.90;13.90;101586.00;;;;5051749;28;20197;-66
2022/10/13 03:51:22;;;;;;;0.20;0.20;;;13.40;99.90;13.90;101592.00;;;;5034540;28;20194;-66
2022/10/13 03:53:50;;;;;;;0.87;0.70;;;13.40;99.90;13.90;101598.00;;;;5035896;28;20225;-66
2022/10/13 03:56:24;;;;;;;0.20;0.20;;;13.40;99.90;13.40;101602.00;;;;5036115;28;20203;-66
2022/10/13 03:58:57;;;;;;;0.43;0.43;;;13.30;99.90;13.50;101601.00;;;;5035985;28;20177;-66
2022/10/13 04:01:26;;;;;;;1.37;1.37;;;13.30;99.90;13.40;101589.00;;;;5050801;28;20546;-67
2022/10/13 04:03:54;;;;;;;0.20;0.20;;;13.20;99.90;13.40;101584.00;;;;5051383;28;20268;-66
2022/10/13 04:06:21;;;;;;;0.20;0.20;;;13.20;99.90;13.40;101592.00;;;;5034516;28;20254;-66
2022/10/13 04:08:47;;;;;;;0.67;0.67;;;13.20;99.90;13.80;101550.00;;;;5035626;28;20203;-66
2022/10/13 04:11:15;;;;;;;0.57;0.57;;;13.30;99.90;13.60;101585.00;;;;5050813;28;20193;-66
2022/10/13 04:13:41;;;;;;;0.20;0.20;;;13.30;99.90;13.60;101568.00;;;;5035580;28;20177;-66
2022/10/13 04:16:23;;;;;;;0.30;0.30;;;13.30;99.90;13.60;101565.00;;;;5034065;28;20188;-66
2022/10/13 04:19:03;;;;;;;0.20;0.20;;;13.20;99.90;13.50;101570.00;;;;5051027;28;20179;-66
2022/10/13 04:21:32;;;;;;;0.57;0.57;;;13.20;99.90;13.80;101556.00;;;;5033935;28;20218;-66
2022/10/13 04:23:59;;;;;;;0.30;0.30;;;13.30;99.90;14.00;101553.00;;;;5035451;28;20188;-66
2022/10/13 04:26:28;;;;;;;0.47;0.47;;;13.40;99.90;13.70;101557.00;;;;5033999;28;20186;-66
2022/10/13 04:28:56;;;;;;;0.20;0.20;;;13.40;99.90;14.00;101552.00;;;;5051019;28;20172;-66
2022/10/13 04:31:23;;;;;;;0.30;0.30;;;13.50;99.90;13.70;101554.00;;;;5033706;28;20193;-66
2022/10/13 04:33:50;;;;;;;0.30;0.30;;;13.40;99.90;13.80;101546.00;;;;5050685;28;20179;-66
2022/10/13 04:36:17;;;;;;;3.70;0.93;;;13.40;99.90;13.60;101547.00;;;;5050499;28;20183;-66
2022/10/13 04:38:43;;;;;;;2.57;2.20;;;13.30;99.90;13.50;101553.00;;;;5035296;28;20183;-66
2022/10/13 04:41:11;;;;;;;0.30;0.30;;;13.20;99.90;13.60;101551.00;;;;5050439;28;20205;-66
2022/10/13 04:43:37;;;;;;;0.50;0.40;;;13.20;99.90;13.60;101552.00;;;;5035123;28;20177;-66
2022/10/13 04:46:13;;;;;;;0.30;0.30;;;13.20;99.90;13.40;101525.00;;;;5033480;28;20556;-66
2022/10/13 04:48:40;;;;;;;0.87;0.87;;;13.20;99.90;13.60;101547.00;;;;5033986;28;20633;-66
2022/10/13 04:51:10;;;;;;;0.77;0.77;;;13.20;99.90;13.50;101549.00;;;;5033721;28;20183;-66
2022/10/13 04:53:36;;;;;;;0.30;0.30;;;13.20;99.90;13.50;101523.00;;;;5050239;28;20196;-67
2022/10/13 04:56:07;;;;;;;0.43;0.43;;;13.10;99.90;13.30;101554.00;;;;5035004;28;20206;-67
2022/10/13 04:58:34;;;;;;;1.13;1.03;;;13.10;99.90;13.50;101551.00;;;;5033386;28;20188;-67
2022/10/13 05:01:03;;;;;;;0.97;0.97;;;13.20;99.90;13.50;101550.00;;;;5033512;28;20604;-67
2022/10/13 05:03:30;;;;;;;0.30;0.30;;;13.20;99.90;13.60;101544.00;;;;5050115;28;20178;-67
2022/10/13 05:05:56;;;;;;;0.77;0.53;;;13.20;99.90;13.40;101544.00;;;;5034799;28;20183;-67
2022/10/13 05:08:40;;;;;;;0.67;0.67;;;13.20;99.90;13.30;101516.00;;;;5033751;28;20248;-67
2022/10/13 05:11:07;;;;;;;0.83;0.83;;;13.10;99.90;13.40;101545.00;;;;5049912;28;20184;-67
2022/10/13 05:13:33;;;;;;;0.50;0.50;;;13.10;99.90;13.50;101526.00;;;;5032842;28;20748;-67
2022/10/13 05:16:09;;;;;;;0.93;0.93;;;13.20;99.90;13.60;101544.00;;;;5033135;28;20197;-67
2022/10/13 05:18:36;;;;;;;0.30;0.30;;;13.20;99.90;13.60;101533.00;;;;5032932;28;20185;-67
2022/10/13 05:21:17;;;;;;;0.40;0.40;;;13.30;99.90;13.80;101530.00;;;;5050406;28;20173;-67
2022/10/13 05:23:45;;;;;;;0.53;0.53;;;13.30;99.90;13.70;101535.00;;;;5032908;28;20185;-67
2022/10/13 05:26:15;;;;;;;0.20;0.20;;;13.40;99.90;13.80;101505.00;;;;5049856;28;20183;-67
2022/10/13 05:28:41;;;;;;;0.20;0.20;;;13.30;99.90;13.60;101530.00;;;;5033919;28;20575;-67
2022/10/13 05:31:18;;;;;;;1.07;1.07;;;13.30;99.90;13.60;101531.00;;;;5032893;28;20183;-67
2022/10/13 05:34:00;;;;;;;0.23;0.23;;;13.20;99.90;13.90;101537.00;;;;5032713;28;20193;-67
2022/10/13 05:36:54;;;;;;;0.50;0.50;;;13.20;99.90;14.10;101529.00;;;;5032698;28;20509;-64
2022/10/13 05:39:58;;;;;;;1.17;1.07;;;13.40;99.90;13.70;101506.00;;;;5032715;28;20217;-64
2022/10/13 05:42:24;;;;;;;0.40;0.40;;;13.40;99.90;13.80;101530.00;;;;5031902;28;20273;-67
2022/10/13 05:44:50;;;;;;;0.53;0.53;;;13.40;99.90;13.60;101501.00;;;;5049119;28;20214;-67
2022/10/13 05:47:16;;;;;;;0.30;0.30;;;13.30;99.90;13.60;101526.00;;;;5032808;28;20189;-68
2022/10/13 05:49:42;;;;;;;0.20;0.20;;;13.30;99.90;13.50;101515.00;;;;5032580;28;20563;-67
2022/10/13 05:52:10;;;;;;;1.33;0.77;;;13.20;99.90;13.70;101519.00;;;;5049366;28;20221;-67
2022/10/13 05:54:45;;;;;;;1.40;1.30;;;13.30;99.90;13.50;101519.00;;;;5033502;28;20192;-67
2022/10/13 05:57:39;;;;;;;0.20;0.20;;;13.30;99.90;13.60;101517.00;;;;5033515;28;20184;-67
2022/10/13 06:00:13;;;;;;;0.30;0.30;;;13.20;99.90;13.90;101511.00;;;;5048900;28;20181;-67
2022/10/13 06:03:06;;;;;;;1.47;1.40;;;13.30;99.90;13.80;101510.00;;;;5033301;28;20649;-67
2022/10/13 06:05:32;;;;;;;1.53;1.43;;;13.40;99.90;13.70;101516.00;;;;5033797;28;20175;-67
2022/10/13 06:07:58;;;;;;;0.67;0.67;;;13.40;99.90;13.30;101503.00;;;;5015282;28;20569;-67
2022/10/13 06:10:25;;;;;;;0.30;0.30;;;13.20;99.90;13.50;101504.00;;;;5012677;28;20266;-67
2022/10/13 06:12:58;;;;;;;0.50;0.50;;;13.20;99.90;13.50;101506.00;;;;4995610;28;20262;-67
2022/10/13 06:15:24;;;;;;;0.20;0.20;;;13.20;99.90;13.50;101500.00;;;;5012562;28;20186;-67
2022/10/13 06:17:50;;;;;;;0.20;0.20;;;13.20;99.90;13.70;101497.00;;;;4996066;28;20191;-67
2022/10/13 06:20:19;;;;;;;0.30;0.30;;;13.30;99.90;13.90;101502.00;;;;5014082;28;20279;-66
2022/10/13 06:22:45;;;;;;;3.03;2.83;;;13.40;99.90;13.70;101505.00;;;;4996464;28;20187;-67
2022/10/13 06:25:11;;;;;;;1.40;1.40;;;13.30;99.90;13.40;101488.00;;;;5012288;28;20191;-67
2022/10/13 06:27:37;;;;;;;4.03;1.90;;;13.30;99.90;13.50;101492.00;;;;5012143;28;20184;-67
2022/10/13 06:30:03;;;;;;;0.23;0.23;;;13.30;99.90;13.70;101490.00;;;;4996029;28;20646;-67
2022/10/13 06:32:30;;;;;;;0.63;0.63;;;13.30;99.90;13.70;101484.00;;;;5012039;28;20224;-65
2022/10/13 06:34:56;;;;;;;0.50;0.50;;;13.40;99.90;13.90;101491.00;;;;4996180;28;20573;-65
2022/10/13 06:37:24;;;;;;;0.70;0.70;;;13.40;99.90;13.70;101495.00;;;;4996145;28;20268;-66
2022/10/13 06:40:08;;;;;;;4.93;1.17;;;13.40;99.90;13.80;101493.00;;;;5012030;28;20219;-65
2022/10/13 06:43:17;;;;;;;0.67;0.50;;;13.40;99.90;13.80;101494.00;;;;5012172;28;20636;-67
2022/10/13 06:46:20;;;;;;;0.80;0.80;;;13.40;99.90;13.60;101494.00;;;;5013548;28;20206;-65
2022/10/13 06:49:09;;;;;;;0.40;0.40;;;13.30;99.90;14.00;101497.00;;;;5011897;28;20637;-65
2022/10/13 06:52:14;;;;;;;1.37;1.27;;;13.40;99.90;13.80;101492.00;;;;4995371;28;20203;-65
2022/10/13 06:55:15;;;;;;;3.07;1.90;;;13.40;99.90;13.50;101491.00;;;;4997791;28;20183;-65
2022/10/13 06:58:21;;;;;;;0.30;0.30;;;13.40;99.90;13.60;101496.00;;;;5015462;28;20262;-67
2022/10/13 07:01:25;;;;;;;0.30;0.30;;;13.30;99.90;13.90;101493.00;;;;4987232;28;20188;-67
2022/10/13 07:04:28;;;;;;;2.10;1.23;;;13.30;99.90;13.80;101492.00;;;;5016820;28;20203;-65
2022/10/13 07:07:32;;;;;;;0.50;0.50;;;13.50;99.90;14.10;101481.00;;;;5048756;28;20206;-65
2022/10/13 07:09:58;;;;;;;0.50;0.50;;;13.50;99.90;13.80;101487.00;;;;4999402;28;20183;-65
2022/10/13 07:12:23;;;;;;;0.30;0.30;;;13.50;99.90;13.70;101496.00;;;;5015739;28;20234;-65
2022/10/13 07:14:49;;;;;;;1.37;1.37;;;13.50;99.90;13.60;101482.00;;;;4999445;28;20193;-65
2022/10/13 07:17:15;;;;;;;0.83;0.83;;;13.50;99.90;13.80;101474.00;;;;5017187;28;20715;-65
2022/10/13 07:19:41;;;;;;;0.63;0.57;;;13.40;99.90;13.60;101494.00;;;;4999286;28;20204;-65
2022/10/13 07:22:07;;;;;;;2.40;2.20;;;13.40;99.90;13.80;101491.00;;;;5015919;28;20658;-65
2022/10/13 07:24:33;;;;;;;0.47;0.37;;;13.50;99.90;13.90;101491.00;;;;4998758;28;20544;-65
2022/10/13 07:27:00;;;;;;;0.20;0.20;;;13.40;99.90;13.60;101465.00;;;;4999800;28;20234;-65
2022/10/13 07:29:26;;;;;;;0.20;0.20;;;13.40;99.90;13.70;101493.00;;;;5015588;28;20189;-65
2022/10/13 07:31:52;;;;;;;2.00;1.90;;;13.40;99.90;13.80;101492.00;;;;4999088;28;20572;-65
2022/10/13 07:34:18;;;;;;;1.50;1.33;;;13.40;99.90;14.20;101503.00;;;;4999119;28;20223;-65
2022/10/13 07:36:43;;;;;;;0.93;0.93;;;13.60;99.90;14.20;101505.00;;;;4998958;28;20628;-65
2022/10/13 07:39:09;;;;;;;0.30;0.30;;;13.70;99.90;13.60;101503.00;;;;4998784;28;20272;-65
2022/10/13 07:41:36;;;;;;;0.50;0.50;;;13.40;99.90;14.10;101501.00;;;;5015661;28;20190;-65
2022/10/13 07:44:02;;;;;;;0.60;0.60;;;13.50;99.90;13.30;101498.00;;;;5016729;28;20219;-65
2022/10/13 07:46:28;;;;;;;0.83;0.83;;;13.40;99.90;13.30;101507.00;;;;4998791;28;20186;-65
2022/10/13 07:48:54;;;;;;;0.20;0.20;;;13.30;99.90;13.70;101494.00;;;;4999317;28;20708;-65
2022/10/13 07:51:21;;;;;;;1.23;1.13;;;13.40;99.90;13.50;101495.00;;;;5014901;28;20192;-65
2022/10/13 07:53:48;;;;;;;0.20;0.20;;;13.30;99.90;13.80;101503.00;;;;5014766;28;20190;-65
2022/10/13 07:56:15;;;;;;;0.40;0.40;;;13.40;99.90;14.10;101505.00;;;;5014996;28;20535;-65
2022/10/13 07:58:45;;;;;;;0.30;0.30;;;13.60;99.90;14.30;101492.00;;;;5015180;28;20235;-65
2022/10/13 08:01:15;;;;;;;7.50;1.50;;;13.80;99.90;14.20;101489.00;;;;5014884;28;20235;-65
2022/10/13 08:03:58;;;;;;;0.20;0.20;;;13.80;99.90;14.30;101464.00;;;;4998475;28;20184;-65
2022/10/13 08:06:24;;;;;;;2.13;1.93;;;13.90;99.90;14.00;101490.00;;;;4998313;28;20192;-65
2022/10/13 08:08:49;;;;;;;0.80;0.80;;;13.80;99.90;13.90;101495.00;;;;4998074;28;20187;-65
2022/10/13 08:11:16;;;;;;;0.50;0.50;;;13.70;99.90;14.40;101488.00;;;;4998052;28;20173;-66
2022/10/13 08:13:49;;;;;;;0.67;0.67;;;13.90;99.90;14.00;101484.00;;;;5014685;28;20203;-66
2022/10/13 08:16:19;;;;;;;0.43;0.43;;;13.80;99.90;14.40;101494.00;;;;5014573;28;20243;-65
2022/10/13 08:18:46;;;;;;;1.57;1.47;;;13.90;99.90;14.10;101490.00;;;;5014505;28;20181;-65
2022/10/13 08:21:16;;;;;;;0.30;0.30;;;13.80;99.90;14.40;101492.00;;;;4998167;28;20646;-66
2022/10/13 08:23:48;;;;;;;1.07;1.07;;;14.00;99.90;14.10;101485.00;;;;5014301;28;20182;-65
2022/10/13 08:26:19;;;;;;;0.57;0.57;;;13.90;99.90;14.50;101478.00;;;;5014546;28;20184;-66
2022/10/13 08:28:45;;;;;;;2.43;1.10;;;14.00;99.90;14.10;101489.00;;;;5014871;28;20164;-65
2022/10/13 08:31:11;;;;;;;4.20;2.30;;;13.90;99.90;14.00;101487.00;;;;5014096;28;20230;-65
2022/10/13 08:33:37;;;;;;;1.37;0.60;;;13.80;99.90;14.00;101478.00;;;;4998140;28;20236;-66
2022/10/13 08:36:03;;;;;;;0.83;0.73;;;13.80;99.90;14.30;101484.00;;;;5014285;28;20180;-66
2022/10/13 08:38:29;;;;;;;2.30;1.50;;;13.80;99.90;14.10;101484.00;;;;5013833;28;20182;-67
2022/10/13 08:40:55;;;;;;;0.30;0.30;;;13.90;99.90;14.20;101469.00;;;;4997900;28;20578;-67
2022/10/13 08:43:26;;;;;;;0.50;0.50;;;13.80;99.90;14.40;101475.00;;;;4997770;28;20188;-66
2022/10/13 08:46:03;;;;;;;4.07;0.97;;;14.00;99.90;14.30;101464.00;;;;4997935;28;20563;-66
2022/10/13 08:48:36;;;;;;;0.20;0.20;;;14.00;99.90;14.50;101465.00;;;;5013910;28;20528;-66
2022/10/13 08:51:05;;;;;;;1.13;1.13;;;14.10;99.90;14.50;101455.00;;;;4997910;28;20777;-66
2022/10/13 08:53:40;;;;;;;0.20;0.20;;;14.20;99.90;14.40;101461.00;;;;5013449;28;20741;-66
2022/10/13 08:56:20;;;;;;;0.30;0.30;;;14.10;99.90;14.40;101459.00;;;;5013968;28;20179;-66
2022/10/13 08:58:53;;;;;;;1.03;1.00;;;14.20;99.90;14.40;101466.00;;;;5013746;28;20259;-66
2022/10/13 09:01:28;;;;;;;0.87;0.53;;;14.20;99.90;14.50;101462.00;;;;5013898;28;20310;-66
2022/10/13 09:04:43;;;;;;;2.57;2.47;;;14.20;99.90;14.90;101454.00;;;;5013603;28;20180;-66
2022/10/13 09:07:15;;;;;;;0.50;0.50;;;14.40;99.90;14.90;101454.00;;;;5008814;28;20553;-66
2022/10/13 09:09:41;;;;;;;0.87;0.57;;;14.50;99.90;14.80;101447.00;;;;5040230;28;20194;-66
2022/10/13 09:12:11;;;;;;;1.43;1.33;;;14.50;99.90;14.70;101450.00;;;;5014690;28;20235;-66
2022/10/13 09:14:40;;;;;;;0.63;0.63;;;14.50;99.90;14.60;101423.00;;;;5013560;28;20259;-66
2022/10/13 09:17:17;;;;;;;0.53;0.53;;;14.50;99.90;14.50;101455.00;;;;5012565;28;20189;-66
2022/10/13 09:19:45;;;;;;;0.30;0.30;;;14.40;99.90;14.70;101455.00;;;;4997118;28;20268;-66
2022/10/13 09:22:24;;;;;;;0.20;0.20;;;14.50;99.90;14.90;101460.00;;;;5013000;28;20643;-66
2022/10/13 09:25:20;;;;;;;0.50;0.50;;;14.40;99.90;14.80;101450.00;;;;5014393;28;20190;-66
2022/10/13 09:27:58;;;;;;;0.60;0.60;;;14.60;99.90;14.80;101450.00;;;;5041450;28;20691;-66
2022/10/13 09:30:34;;;;;;;0.20;0.20;;;14.50;99.90;15.00;101445.00;;;;5014654;28;20177;-66
2022/10/13 09:33:12;;;;;;;0.50;0.50;;;14.50;99.90;15.10;101450.00;;;;5012864;28;20303;-66
2022/10/13 09:35:58;;;;;;;0.40;0.40;;;14.60;99.90;14.80;101446.00;;;;5014109;28;20166;-67
2022/10/13 09:38:26;;;;;;;0.20;0.20;;;14.50;99.90;14.70;101447.00;;;;5014720;28;20251;-66
2022/10/13 09:41:05;;;;;;;3.10;1.00;;;14.40;99.90;15.20;101453.00;;;;5012943;28;20647;-66
2022/10/13 09:43:45;;;;;;;1.47;1.37;;;14.60;99.90;15.40;101450.00;;;;5013058;28;20694;-67
2022/10/13 09:46:29;;;;;;;0.53;0.53;;;14.80;99.90;15.20;101448.00;;;;5013945;28;20231;-67
2022/10/13 09:49:36;;;;;;;0.50;0.50;;;14.80;99.90;14.80;101456.00;;;;4996316;28;20185;-66
2022/10/13 09:52:24;;;;;;;1.40;1.40;;;14.60;99.90;15.00;101438.00;;;;5045611;28;20197;-67
2022/10/13 09:55:34;;;;;;;2.73;1.97;;;14.60;99.90;14.60;101439.00;;;;5012416;28;20185;-66
2022/10/13 09:58:13;;;;;;;3.37;3.10;;;14.60;99.90;14.50;101440.00;;;;5012663;28;20185;-66
2022/10/13 10:00:40;;;;;;;0.30;0.30;;;14.40;99.90;14.60;101434.00;;;;5012724;28;20236;-67
2022/10/13 10:03:28;;;;;;;0.30;0.30;;;14.40;99.90;15.00;101449.00;;;;4996238;28;20650;-66
2022/10/13 10:06:13;;;;;;;1.57;1.47;;;14.50;99.90;14.90;101437.00;;;;5012342;28;20272;-67
2022/10/13 10:09:02;;;;;;;0.60;0.60;;;14.60;99.90;14.90;101439.00;;;;4996034;28;20268;-67
2022/10/13 10:11:38;;;;;;;1.33;0.63;;;14.60;99.90;15.00;101439.00;;;;4996303;28;20188;-66
2022/10/13 10:14:39;;;;;;;1.63;1.53;;;14.60;99.90;15.00;101434.00;;;;5012709;28;20183;-66
2022/10/13 10:17:35;;;;;;;1.30;1.23;;;14.70;99.90;15.10;101427.00;;;;4999640;28;20190;-66
2022/10/13 10:20:28;;;;;;;0.70;0.70;;;14.60;99.90;15.30;101412.00;;;;5013408;28;20173;-66
2022/10/13 10:34:12;;;;;;;8.43;3.00;;;14.60;99.90;14.60;101452.00;;;;5126775;27;20553;-65
2022/10/13 10:36:47;;;;;;;1.10;1.10;;;14.50;99.90;14.90;101450.00;;;;5090620;28;20204;-68
2022/10/13 10:40:00;;;;;;;0.30;0.30;;;14.60;99.90;15.10;101441.00;;;;5090968;28;20206;-65
2022/10/13 10:42:56;;;;;;;1.10;1.10;;;14.80;99.90;15.30;101438.00;;;;5089311;28;20229;-65
2022/10/13 10:45:27;;;;;;;0.80;0.80;;;14.90;99.90;14.90;101443.00;;;;5089419;28;20229;-65
2022/10/13 10:48:00;;;;;;;0.97;0.97;;;14.90;99.90;15.50;101445.00;;;;5072141;28;20549;-65
2022/10/13 10:50:28;;;;;;;0.57;0.57;;;15.00;99.90;15.10;101437.00;;;;5089268;28;20186;-65
2022/10/13 10:53:32;;;;;;;0.70;0.53;;;15.00;99.90;14.90;101442.00;;;;5072031;28;20591;-66
2022/10/13 10:56:41;;;;;;;1.50;1.50;;;14.80;99.90;15.20;101441.00;;;;5089256;28;20276;-66
2022/10/13 10:59:47;;;;;;;0.50;0.50;;;14.80;99.90;14.80;101441.00;;;;5055537;28;20544;-65
2022/10/13 11:02:33;;;;;;;0.70;0.67;;;14.80;99.90;14.90;101439.00;;;;5088726;28;20202;-66
2022/10/13 11:05:02;;;;;;;0.53;0.53;;;14.80;99.90;15.00;101424.00;;;;5071346;28;20320;-68
2022/10/13 11:07:28;;;;;;;1.63;1.53;;;14.80;99.90;15.00;101434.00;;;;5072417;28;20198;-68
2022/10/13 11:09:56;;;;;;;1.33;1.23;;;14.80;99.90;15.10;101438.00;;;;5088935;28;20183;-66
2022/10/13 11:12:23;;;;;;;1.10;0.83;;;14.90;99.90;14.70;101436.00;;;;5088957;28;20207;-66
2022/10/13 11:15:19;;;;;;;2.30;2.00;;;14.70;99.90;14.80;101437.00;;;;5089149;28;20201;-66
2022/10/13 11:17:44;;;;;;;1.10;1.10;;;14.60;99.90;15.00;101438.00;;;;5088902;28;20182;-66
2022/10/13 11:20:19;;;;;;;0.93;0.93;;;14.70;99.90;15.00;101438.00;;;;5071758;28;20185;-66
2022/10/13 11:23:11;;;;;;;3.30;0.77;;;14.70;99.90;14.90;101431.00;;;;5088890;28;20694;-66
2022/10/13 11:25:47;;;;;;;0.77;0.77;;;14.70;99.90;14.40;101440.00;;;;5066813;28;20561;-66
2022/10/13 11:28:24;;;;;;;5.33;2.27;;;14.40;99.90;14.70;101436.00;;;;5072038;28;20178;-66
2022/10/13 11:30:56;;;;;;;0.60;0.60;;;14.40;99.90;15.70;101395.00;;;;5088261;28;20620;-66